createdAt,value
2023-10-10T00:02:20.288Z,3.38
2023-10-10T00:04:49.615Z,3.36
2023-10-10T00:07:18.353Z,3.36
2023-10-10T00:09:46.970Z,3.36
2023-10-10T00:12:20.248Z,3.32
2023-10-10T00:14:51.964Z,3.27
2023-10-10T00:17:22.248Z,3.26
2023-10-10T00:20:15.974Z,3.24
2023-10-10T00:22:48.030Z,3.22
2023-10-10T00:25:18.085Z,3.19
2023-10-10T00:27:49.640Z,3.14
2023-10-10T00:30:17.911Z,3.09
2023-10-10T00:32:47.622Z,3.02
2023-10-10T00:35:19.010Z,2.97
2023-10-10T00:37:48.164Z,2.91
2023-10-10T00:40:26.784Z,2.88
2023-10-10T00:42:54.662Z,2.86
2023-10-10T00:45:22.631Z,2.90
2023-10-10T00:47:54.360Z,2.92
2023-10-10T00:50:26.892Z,2.90
2023-10-10T00:52:58.393Z,2.92
2023-10-10T00:55:27.056Z,2.93
2023-10-10T00:58:00.302Z,2.99
2023-10-10T01:00:36.094Z,3.00
2023-10-10T01:03:21.848Z,3.00
2023-10-10T01:05:58.779Z,3.00
2023-10-10T01:08:32.284Z,3.02
2023-10-10T01:11:04.826Z,3.05
2023-10-10T01:13:35.055Z,3.07
2023-10-10T01:16:06.525Z,3.10
2023-10-10T01:18:53.011Z,3.10
2023-10-10T01:21:31.177Z,3.04
2023-10-10T01:24:09.246Z,3.04
2023-10-10T01:26:39.469Z,3.06
2023-10-10T01:29:25.703Z,3.07
2023-10-10T01:31:54.730Z,3.08
2023-10-10T01:34:32.576Z,3.10
2023-10-10T01:37:15.195Z,3.14
2023-10-10T01:40:18.087Z,3.18
2023-10-10T01:42:55.388Z,3.20
2023-10-10T01:45:28.091Z,3.16
2023-10-10T01:47:58.997Z,3.18
2023-10-10T01:50:32.151Z,3.24
2023-10-10T01:53:07.049Z,3.33
2023-10-10T01:55:35.058Z,3.38
2023-10-10T01:58:03.576Z,3.35
2023-10-10T02:00:35.669Z,3.29
2023-10-10T02:03:05.544Z,3.24
2023-10-10T02:05:36.896Z,3.27
2023-10-10T02:08:11.162Z,3.36
2023-10-10T02:10:47.562Z,3.45
2023-10-10T02:13:16.082Z,3.53
2023-10-10T02:15:44.080Z,3.61
2023-10-10T02:18:15.369Z,3.68
2023-10-10T02:20:44.567Z,3.73
2023-10-10T02:23:25.733Z,3.77
2023-10-10T02:25:54.764Z,3.81
2023-10-10T02:28:32.109Z,3.83
2023-10-10T02:31:04.676Z,3.86
2023-10-10T02:33:33.026Z,3.94
2023-10-10T02:36:01.170Z,4.01
2023-10-10T02:38:34.911Z,4.09
2023-10-10T02:41:21.978Z,4.13
2023-10-10T02:43:58.245Z,4.19
2023-10-10T02:46:38.564Z,4.25
2023-10-10T02:49:14.274Z,4.31
2023-10-10T02:51:44.907Z,4.36
2023-10-10T02:54:23.734Z,4.43
2023-10-10T02:56:52.363Z,4.45
2023-10-10T02:59:23.658Z,4.43
2023-10-10T03:01:58.526Z,4.41
2023-10-10T03:04:53.736Z,4.50
2023-10-10T03:07:29.982Z,4.58
2023-10-10T03:10:05.007Z,4.63
2023-10-10T03:12:38.255Z,4.68
2023-10-10T03:15:15.219Z,4.75
2023-10-10T03:18:05.600Z,4.81
2023-10-10T03:20:34.144Z,4.81
2023-10-10T03:23:11.310Z,4.77
2023-10-10T03:25:49.013Z,4.77
2023-10-10T03:28:27.617Z,4.76
2023-10-10T03:31:12.200Z,4.77
2023-10-10T03:33:43.121Z,4.80
2023-10-10T03:36:14.154Z,4.82
2023-10-10T03:38:43.850Z,4.83
2023-10-10T03:41:24.893Z,4.83
2023-10-10T03:44:13.290Z,4.87
2023-10-10T03:47:01.146Z,4.88
2023-10-10T03:49:57.713Z,4.90
2023-10-10T03:52:44.459Z,4.95
2023-10-10T03:55:30.912Z,5.02
2023-10-10T03:58:17.202Z,5.05
2023-10-10T04:01:03.698Z,5.06
2023-10-10T04:03:50.281Z,5.10
2023-10-10T04:06:37.055Z,5.15
2023-10-10T04:09:24.010Z,5.14
2023-10-10T04:12:10.663Z,5.16
2023-10-10T04:14:57.204Z,5.24
2023-10-10T04:17:43.613Z,5.31
2023-10-10T04:20:30.088Z,5.39
2023-10-10T04:23:16.764Z,5.46
2023-10-10T04:26:03.384Z,5.52
2023-10-10T04:28:49.638Z,5.56
2023-10-10T04:31:37.175Z,5.61
2023-10-10T04:34:23.713Z,5.66
2023-10-10T04:37:10.125Z,5.65
2023-10-10T04:39:56.737Z,5.67
2023-10-10T04:42:43.308Z,5.73
2023-10-10T04:45:29.939Z,5.73
2023-10-10T04:48:16.473Z,5.77
2023-10-10T04:51:10.055Z,5.79
2023-10-10T04:54:13.457Z,5.76
2023-10-10T04:56:59.868Z,5.77
2023-10-10T04:59:46.279Z,5.82
2023-10-10T05:02:32.945Z,5.86
2023-10-10T05:05:19.387Z,5.88
2023-10-10T05:08:06.135Z,5.89
2023-10-10T05:10:57.681Z,5.90
2023-10-10T05:13:44.338Z,5.90
2023-10-10T05:16:30.869Z,5.86
2023-10-10T05:19:17.662Z,5.85
2023-10-10T05:22:04.138Z,5.85
2023-10-10T05:24:37.106Z,5.90
2023-10-10T05:27:04.998Z,5.93
2023-10-10T05:29:34.874Z,5.93
2023-10-10T05:32:09.427Z,5.95
2023-10-10T05:34:38.454Z,5.98
2023-10-10T05:37:08.030Z,6.03
2023-10-10T05:39:38.698Z,6.08
2023-10-10T05:42:09.902Z,6.10
2023-10-10T05:44:40.457Z,6.09
2023-10-10T05:47:08.613Z,6.14
2023-10-10T05:49:37.818Z,6.21
2023-10-10T05:52:06.034Z,6.31
2023-10-10T05:54:33.969Z,6.41
2023-10-10T05:57:01.941Z,6.51
2023-10-10T05:59:29.931Z,6.58
2023-10-10T06:01:57.884Z,6.61
2023-10-10T06:04:25.823Z,6.63
2023-10-10T06:06:53.849Z,6.65
2023-10-10T06:09:27.573Z,6.69
2023-10-10T06:11:55.885Z,6.74
2023-10-10T06:14:23.973Z,6.73
2023-10-10T06:16:53.813Z,6.73
2023-10-10T06:19:22.820Z,6.79
2023-10-10T06:21:53.341Z,6.84
2023-10-10T06:24:21.310Z,6.86
2023-10-10T06:26:50.774Z,6.89
2023-10-10T06:29:18.878Z,6.99
2023-10-10T06:31:47.131Z,7.10
2023-10-10T06:34:23.390Z,7.17
2023-10-10T06:36:53.008Z,7.28
2023-10-10T06:39:20.955Z,7.37
2023-10-10T06:41:56.010Z,7.49
2023-10-10T06:44:34.156Z,7.62
2023-10-10T06:47:10.684Z,7.75
2023-10-10T06:49:48.035Z,7.84
2023-10-10T06:52:24.681Z,7.91
2023-10-10T06:54:55.698Z,7.99
2023-10-10T06:57:39.071Z,8.07
2023-10-10T07:00:36.705Z,8.20
2023-10-10T07:03:05.651Z,8.26
2023-10-10T07:05:36.661Z,8.32
2023-10-10T07:08:15.127Z,8.39
2023-10-10T07:10:43.434Z,8.45
2023-10-10T07:13:15.469Z,8.46
2023-10-10T07:15:44.137Z,8.52
2023-10-10T07:18:23.875Z,8.59
2023-10-10T07:21:16.289Z,8.70
2023-10-10T07:24:03.428Z,8.81
2023-10-10T07:26:32.551Z,8.92
2023-10-10T07:29:20.804Z,8.97
2023-10-10T07:31:48.704Z,9.02
2023-10-10T07:34:16.984Z,9.09
2023-10-10T07:36:45.387Z,9.19
2023-10-10T07:39:45.751Z,9.27
2023-10-10T07:42:13.765Z,9.29
2023-10-10T07:44:43.091Z,9.41
2023-10-10T07:47:11.491Z,9.47
2023-10-10T07:49:51.271Z,9.59
2023-10-10T07:52:21.697Z,9.73
2023-10-10T07:54:55.061Z,9.84
2023-10-10T07:57:30.808Z,9.94
2023-10-10T07:59:59.912Z,9.99
2023-10-10T08:02:36.205Z,10.02
2023-10-10T08:05:11.291Z,10.07
2023-10-10T08:07:39.437Z,10.07
2023-10-10T08:10:40.130Z,10.12
2023-10-10T08:13:11.365Z,10.18
2023-10-10T08:15:52.164Z,10.25
2023-10-10T08:18:38.524Z,10.33
2023-10-10T08:21:09.545Z,10.34
2023-10-10T08:23:44.429Z,10.36
2023-10-10T08:26:19.929Z,10.45
2023-10-10T08:28:50.071Z,10.53
2023-10-10T08:31:18.361Z,10.59
2023-10-10T08:33:47.684Z,10.61
2023-10-10T08:36:25.743Z,10.73
2023-10-10T08:38:58.713Z,10.81
2023-10-10T08:41:28.754Z,10.93
2023-10-10T08:43:59.628Z,11.01
2023-10-10T08:46:31.218Z,11.06
2023-10-10T08:49:00.683Z,11.06
2023-10-10T08:51:35.487Z,11.21
2023-10-10T08:54:11.453Z,11.37
2023-10-10T08:56:40.900Z,11.43
2023-10-10T08:59:11.920Z,11.50
2023-10-10T09:01:41.191Z,11.51
2023-10-10T09:04:18.832Z,11.60
2023-10-10T09:06:57.651Z,11.65
2023-10-10T09:09:36.232Z,11.69
2023-10-10T09:12:14.022Z,11.71
2023-10-10T09:14:52.710Z,11.81
2023-10-10T09:17:37.505Z,11.93
2023-10-10T09:20:24.538Z,12.00
2023-10-10T09:22:53.587Z,12.07
2023-10-10T09:25:27.699Z,12.12
2023-10-10T09:28:00.436Z,12.20
2023-10-10T09:30:36.203Z,12.30
2023-10-10T09:33:22.954Z,12.37
2023-10-10T09:35:54.668Z,12.45
2023-10-10T09:38:28.012Z,12.51
2023-10-10T09:41:12.200Z,12.52
2023-10-10T09:44:23.318Z,12.65
2023-10-10T09:47:10.348Z,12.86
2023-10-10T09:50:01.714Z,12.98
2023-10-10T09:52:51.660Z,13.06
2023-10-10T09:55:40.382Z,13.08
2023-10-10T09:58:09.098Z,13.03
2023-10-10T10:00:38.560Z,12.94
2023-10-10T10:03:30.426Z,13.05
2023-10-10T10:06:24.907Z,13.21
2023-10-10T10:09:20.473Z,13.40
2023-10-10T10:12:10.073Z,13.56
2023-10-10T10:15:01.198Z,13.71
2023-10-10T10:17:50.536Z,13.84
2023-10-10T10:20:50.291Z,13.91
2023-10-10T10:23:29.119Z,13.99
2023-10-10T10:26:12.740Z,13.98
2023-10-10T10:28:44.186Z,14.02
2023-10-10T10:31:29.094Z,14.10
2023-10-10T10:34:07.089Z,14.12
2023-10-10T10:36:46.691Z,13.99
2023-10-10T10:39:26.414Z,14.01
2023-10-10T10:41:55.404Z,14.08
2023-10-10T10:45:00.519Z,14.13
2023-10-10T10:47:47.164Z,14.21
2023-10-10T10:51:02.272Z,14.25
2023-10-10T10:53:42.910Z,14.32
2023-10-10T10:56:17.852Z,14.34
2023-10-10T10:58:52.858Z,14.29
2023-10-10T11:01:25.288Z,14.30
2023-10-10T11:03:54.210Z,14.31
2023-10-10T11:06:25.774Z,14.39
2023-10-10T11:08:58.116Z,14.44
2023-10-10T11:11:33.872Z,14.58
2023-10-10T11:14:24.495Z,14.68
2023-10-10T11:16:58.423Z,14.73
2023-10-10T11:19:31.741Z,14.72
2023-10-10T11:22:02.457Z,14.75
2023-10-10T11:24:32.928Z,14.85
2023-10-10T11:27:07.019Z,14.87
2023-10-10T11:29:49.132Z,14.86
2023-10-10T11:32:26.504Z,15.01
2023-10-10T11:35:19.027Z,15.14
2023-10-10T11:37:50.418Z,15.13
2023-10-10T11:40:29.520Z,15.16
2023-10-10T11:43:05.612Z,15.20
2023-10-10T11:45:41.751Z,15.19
2023-10-10T11:48:14.233Z,15.09
2023-10-10T11:50:45.956Z,14.99
2023-10-10T11:53:16.463Z,14.92
2023-10-10T11:55:45.558Z,14.78
2023-10-10T11:58:20.561Z,14.75
2023-10-10T12:01:07.437Z,14.67
2023-10-10T12:03:39.984Z,14.50
2023-10-10T12:06:18.216Z,14.39
2023-10-10T12:08:49.750Z,14.29
2023-10-10T12:11:23.036Z,14.18
2023-10-10T12:13:53.901Z,13.98
2023-10-10T12:16:25.351Z,13.84
2023-10-10T12:18:55.457Z,13.81
2023-10-10T12:21:25.162Z,13.78
2023-10-10T12:24:00.617Z,13.71
2023-10-10T12:26:37.364Z,13.68
2023-10-10T12:29:05.800Z,13.64
2023-10-10T12:31:35.883Z,13.60
2023-10-10T12:34:04.172Z,13.63
2023-10-10T12:36:34.177Z,13.57
2023-10-10T12:39:06.157Z,13.57
2023-10-10T12:41:47.611Z,13.58
2023-10-10T12:44:16.121Z,13.56
2023-10-10T12:46:44.326Z,13.42
2023-10-10T12:49:13.128Z,13.43
2023-10-10T12:51:46.201Z,13.53
2023-10-10T12:54:18.509Z,13.58
2023-10-10T12:57:00.506Z,13.59
2023-10-10T12:59:34.716Z,13.60
2023-10-10T13:02:05.085Z,13.61
2023-10-10T13:04:33.729Z,13.63
2023-10-10T13:07:04.777Z,13.60
2023-10-10T13:09:33.931Z,13.57
2023-10-10T13:12:05.521Z,13.50
2023-10-10T13:14:36.341Z,13.41
2023-10-10T13:17:23.145Z,13.37
2023-10-10T13:19:53.645Z,13.39
2023-10-10T13:22:22.503Z,13.39
2023-10-10T13:24:50.890Z,13.38
2023-10-10T13:27:19.297Z,13.30
2023-10-10T13:29:47.398Z,13.28
2023-10-10T13:32:15.284Z,13.31
2023-10-10T13:34:43.227Z,13.36
2023-10-10T13:37:11.187Z,13.41
2023-10-10T13:39:45.078Z,13.43
2023-10-10T13:42:18.924Z,13.38
2023-10-10T13:44:50.152Z,13.33
2023-10-10T13:47:18.552Z,13.27
2023-10-10T13:49:46.669Z,13.25
2023-10-10T13:52:17.764Z,13.25
2023-10-10T13:54:45.896Z,13.20
2023-10-10T13:57:13.896Z,13.18
2023-10-10T13:59:41.881Z,13.13
2023-10-10T14:02:12.615Z,13.07
2023-10-10T14:04:52.126Z,13.07
2023-10-10T14:07:20.246Z,13.09
2023-10-10T14:10:03.074Z,13.11
2023-10-10T14:12:33.928Z,13.05
2023-10-10T14:15:03.143Z,13.01
2023-10-10T14:17:31.774Z,13.01
2023-10-10T14:20:00.696Z,12.98
2023-10-10T14:22:38.017Z,12.95
2023-10-10T14:25:13.916Z,12.97
2023-10-10T14:27:45.228Z,12.93
2023-10-10T14:30:24.950Z,12.91
2023-10-10T14:32:56.431Z,12.91
2023-10-10T14:35:25.569Z,12.92
2023-10-10T14:38:01.757Z,12.96
2023-10-10T14:40:32.371Z,13.02
2023-10-10T14:43:07.230Z,13.03
2023-10-10T14:45:36.452Z,13.03
2023-10-10T14:48:08.490Z,13.04
2023-10-10T14:50:40.928Z,13.03
2023-10-10T14:53:11.980Z,13.03
2023-10-10T14:55:45.716Z,12.99
2023-10-10T14:58:14.453Z,12.97
2023-10-10T15:00:43.896Z,12.97
2023-10-10T15:03:17.332Z,12.96
2023-10-10T15:05:51.830Z,12.96
2023-10-10T15:08:21.889Z,12.97
2023-10-10T15:10:54.581Z,12.97
2023-10-10T15:13:22.740Z,12.97
2023-10-10T15:15:50.795Z,12.98
2023-10-10T15:18:20.189Z,12.95
2023-10-10T15:20:50.121Z,12.90
2023-10-10T15:23:23.975Z,12.88
2023-10-10T15:26:06.895Z,12.82
2023-10-10T15:28:35.806Z,12.77
2023-10-10T15:31:07.738Z,12.75
2023-10-10T15:33:35.709Z,12.69
2023-10-10T15:36:07.500Z,12.66
2023-10-10T15:38:36.581Z,12.63
2023-10-10T15:41:16.357Z,12.59
2023-10-10T15:43:48.300Z,12.54
2023-10-10T15:46:17.693Z,12.55
2023-10-10T15:48:53.820Z,12.58
2023-10-10T15:51:24.340Z,12.57
2023-10-10T15:53:55.081Z,12.51
2023-10-10T15:56:28.507Z,12.54
2023-10-10T15:58:57.541Z,12.56
2023-10-10T16:01:30.429Z,12.64
2023-10-10T16:04:06.956Z,12.64
2023-10-10T16:06:36.074Z,12.65
2023-10-10T16:09:11.806Z,12.63
2023-10-10T16:11:41.795Z,12.61
2023-10-10T16:14:13.193Z,12.60
2023-10-10T16:16:45.800Z,12.63
2023-10-10T16:19:26.862Z,12.66
2023-10-10T16:21:56.418Z,12.65
2023-10-10T16:24:27.001Z,12.62
2023-10-10T16:27:02.928Z,12.59
2023-10-10T16:29:34.749Z,12.59
2023-10-10T16:32:19.350Z,12.56
2023-10-10T16:34:48.361Z,12.53
2023-10-10T16:37:19.162Z,12.46
2023-10-10T16:39:47.883Z,12.39
2023-10-10T16:42:20.873Z,12.35
2023-10-10T16:44:50.075Z,12.33
2023-10-10T16:47:19.168Z,12.29
2023-10-10T16:49:51.074Z,12.23
2023-10-10T16:52:27.487Z,12.16
2023-10-10T16:54:58.355Z,12.01
2023-10-10T16:57:26.476Z,11.84
2023-10-10T16:59:57.408Z,11.71
2023-10-10T17:02:30.208Z,11.57
2023-10-10T17:05:02.369Z,11.47
2023-10-10T17:07:31.109Z,11.40
2023-10-10T17:09:59.407Z,11.32
2023-10-10T17:12:27.770Z,11.26
2023-10-10T17:14:58.166Z,11.20
2023-10-10T17:17:26.819Z,11.17
2023-10-10T17:19:55.245Z,11.11
2023-10-10T17:22:23.478Z,11.02
2023-10-10T17:24:51.715Z,10.94
2023-10-10T17:27:19.796Z,10.90
2023-10-10T17:29:48.165Z,10.86
2023-10-10T17:32:16.958Z,10.83
2023-10-10T17:34:45.974Z,10.80
2023-10-10T17:37:14.185Z,10.80
2023-10-10T17:39:43.203Z,10.77
2023-10-10T17:42:12.731Z,10.71
2023-10-10T17:44:41.124Z,10.71
2023-10-10T17:47:09.512Z,10.71
2023-10-10T17:49:37.710Z,10.66
2023-10-10T17:52:05.745Z,10.61
2023-10-10T17:54:33.804Z,10.59
2023-10-10T17:57:01.922Z,10.55
2023-10-10T17:59:32.540Z,10.49
2023-10-10T18:02:01.010Z,10.46
2023-10-10T18:04:31.578Z,10.43
2023-10-10T18:07:01.365Z,10.41
2023-10-10T18:09:36.753Z,10.39
2023-10-10T18:12:07.344Z,10.34
2023-10-10T18:14:35.635Z,10.26
2023-10-10T18:17:06.907Z,10.20
2023-10-10T18:19:34.768Z,10.14
2023-10-10T18:22:06.500Z,10.12
2023-10-10T18:24:38.409Z,10.10
2023-10-10T18:27:06.783Z,10.09
2023-10-10T18:29:34.888Z,10.11
2023-10-10T18:32:05.352Z,10.12
2023-10-10T18:34:33.362Z,10.15
2023-10-10T18:37:02.533Z,10.17
2023-10-10T18:39:30.605Z,10.17
2023-10-10T18:41:59.180Z,10.16
2023-10-10T18:44:29.323Z,10.24
2023-10-10T18:47:00.800Z,10.30
2023-10-10T18:49:29.496Z,10.32
2023-10-10T18:51:58.181Z,10.37
2023-10-10T18:54:26.106Z,10.38
2023-10-10T18:56:54.046Z,10.33
2023-10-10T18:59:23.311Z,10.32
2023-10-10T19:01:51.746Z,10.35
2023-10-10T19:04:21.209Z,10.36
2023-10-10T19:06:54.060Z,10.38
2023-10-10T19:09:24.454Z,10.40
2023-10-10T19:11:58.490Z,10.38
2023-10-10T19:14:34.848Z,10.37
2023-10-10T19:17:03.844Z,10.34
2023-10-10T19:19:33.023Z,10.33
2023-10-10T19:22:01.259Z,10.34
2023-10-10T19:24:31.709Z,10.34
2023-10-10T19:27:00.607Z,10.33
2023-10-10T19:29:30.120Z,10.32
2023-10-10T19:32:00.588Z,10.27
2023-10-10T19:34:31.172Z,10.26
2023-10-10T19:36:59.019Z,10.26
2023-10-10T19:39:27.464Z,10.24
2023-10-10T19:41:56.825Z,10.25
2023-10-10T19:44:27.273Z,10.28
2023-10-10T19:46:55.312Z,10.30
2023-10-10T19:49:24.731Z,10.33
2023-10-10T19:51:54.149Z,10.33
2023-10-10T19:54:22.757Z,10.34
2023-10-10T19:56:51.075Z,10.30
2023-10-10T19:59:19.502Z,10.29
2023-10-10T20:01:47.596Z,10.31
2023-10-10T20:04:16.038Z,10.36
2023-10-10T20:06:47.945Z,10.38
2023-10-10T20:09:21.727Z,10.39
2023-10-10T20:11:49.993Z,10.38
2023-10-10T20:14:18.097Z,10.41
2023-10-10T20:16:51.145Z,10.43
2023-10-10T20:19:19.871Z,10.42
2023-10-10T20:21:47.831Z,10.43
2023-10-10T20:24:16.099Z,10.42
2023-10-10T20:26:44.081Z,10.44
2023-10-10T20:29:12.008Z,10.44
2023-10-10T20:31:39.841Z,10.44
2023-10-10T20:34:08.600Z,10.44
2023-10-10T20:36:38.111Z,10.47
2023-10-10T20:39:07.602Z,10.48
2023-10-10T20:41:35.815Z,10.48
2023-10-10T20:44:04.057Z,10.47
2023-10-10T20:46:32.853Z,10.46
2023-10-10T20:49:01.744Z,10.50
2023-10-10T20:51:29.947Z,10.57
2023-10-10T20:53:59.257Z,10.60
2023-10-10T20:56:28.846Z,10.61
2023-10-10T20:58:56.862Z,10.62
2023-10-10T21:01:24.802Z,10.65
2023-10-10T21:03:53.134Z,10.68
2023-10-10T21:06:22.111Z,10.70
2023-10-10T21:08:50.502Z,10.70
2023-10-10T21:11:18.623Z,10.69
2023-10-10T21:13:48.064Z,10.74
2023-10-10T21:16:16.923Z,10.81
2023-10-10T21:18:46.794Z,10.85
2023-10-10T21:21:15.526Z,10.86
2023-10-10T21:23:44.289Z,10.86
2023-10-10T21:26:15.688Z,10.86
2023-10-10T21:28:45.778Z,10.86
2023-10-10T21:31:14.443Z,10.83
2023-10-10T21:33:45.163Z,10.84
2023-10-10T21:36:13.787Z,10.85
2023-10-10T21:38:42.010Z,10.85
2023-10-10T21:41:11.121Z,10.88
2023-10-10T21:43:39.766Z,10.91
2023-10-10T21:46:08.933Z,10.94
2023-10-10T21:48:37.283Z,10.97
2023-10-10T21:51:08.360Z,11.02
2023-10-10T21:53:37.950Z,11.01
2023-10-10T21:56:07.997Z,11.00
2023-10-10T21:58:40.223Z,11.04
2023-10-10T22:01:11.962Z,11.07
2023-10-10T22:03:45.451Z,11.08
2023-10-10T22:06:13.851Z,11.06
2023-10-10T22:08:43.738Z,11.06
2023-10-10T22:11:13.021Z,11.13
2023-10-10T22:13:41.199Z,11.20
2023-10-10T22:16:09.104Z,11.29
2023-10-10T22:18:37.288Z,11.35
2023-10-10T22:21:05.318Z,11.38
2023-10-10T22:23:33.408Z,11.41
2023-10-10T22:26:01.462Z,11.38
2023-10-10T22:28:30.312Z,11.42
2023-10-10T22:31:00.583Z,11.48
2023-10-10T22:33:28.756Z,11.50
2023-10-10T22:35:56.985Z,11.47
2023-10-10T22:38:25.170Z,11.50
2023-10-10T22:40:54.950Z,11.56
2023-10-10T22:43:22.877Z,11.58
2023-10-10T22:45:52.412Z,11.58
2023-10-10T22:48:20.687Z,11.56
2023-10-10T22:50:54.205Z,11.54
2023-10-10T22:53:22.601Z,11.55
2023-10-10T22:55:50.742Z,11.59
2023-10-10T22:58:21.595Z,11.65
2023-10-10T23:00:49.932Z,11.71
2023-10-10T23:03:20.902Z,11.73
2023-10-10T23:05:49.447Z,11.77
2023-10-10T23:08:17.412Z,11.84
2023-10-10T23:10:47.632Z,11.89
2023-10-10T23:13:16.939Z,11.92
2023-10-10T23:15:50.153Z,11.94
2023-10-10T23:18:18.822Z,11.99
2023-10-10T23:20:47.589Z,11.99
2023-10-10T23:23:17.340Z,11.97
2023-10-10T23:25:48.608Z,11.98
2023-10-10T23:28:16.481Z,12.00
2023-10-10T23:30:44.671Z,12.02
2023-10-10T23:33:13.951Z,12.04
2023-10-10T23:35:42.878Z,12.07
2023-10-10T23:38:11.956Z,12.13
2023-10-10T23:40:41.423Z,12.17
2023-10-10T23:43:20.732Z,12.17
2023-10-10T23:46:00.209Z,12.13
2023-10-10T23:48:32.057Z,12.15
2023-10-10T23:51:00.789Z,12.16
2023-10-10T23:53:29.016Z,12.12
2023-10-10T23:56:00.627Z,12.10
2023-10-10T23:58:30.775Z,12.11
